RED82 KGFL-KRUT
Flight info
| Callsign | RED82 |
|---|---|
| Flight time | 0h 22m |
| Altitude | 5500 |
| Route | DCT |
| Aircraft | C172/L-SGRC/S |
Departure
| Time | 2026-04-14 03:34 |
|---|---|
| Airport | Floyd Bennett Memorial Airport (KGFL) |
Arrival
| Time | 2026-04-14 03:56 |
|---|---|
| Airport | Rutland - Southern Vermont Regional Airport (KRUT) |
| Time | Latitude | Longitude | Altitude | Speed | Heading |
|---|---|---|---|---|---|
| 2026-04-14 03:29 | 43.33900 | -73.60405 | 324 ft | 0 kts | 58° |
| 2026-04-14 03:31 | 43.33901 | -73.60401 | 324 ft | 3 kts | 80° |
| 2026-04-14 03:31 | 43.33883 | -73.60413 | 324 ft | 7 kts | 246° |
| 2026-04-14 03:31 | 43.33844 | -73.60470 | 324 ft | 6 kts | 189° |
| 2026-04-14 03:32 | 43.33842 | -73.60471 | 324 ft | 0 kts | 191° |
| 2026-04-14 03:32 | 43.33840 | -73.60471 | 324 ft | 3 kts | 192° |
| 2026-04-14 03:33 | 43.33792 | -73.60496 | 324 ft | 8 kts | 208° |
| 2026-04-14 03:33 | 43.33777 | -73.60543 | 325 ft | 4 kts | 289° |
| 2026-04-14 03:33 | 43.33795 | -73.60609 | 325 ft | 30 kts | 290° |
| 2026-04-14 03:33 | 43.33939 | -73.61124 | 354 ft | 78 kts | 290° |
| 2026-04-14 03:34 | 43.34356 | -73.62737 | 788 ft | 93 kts | 290° |
| 2026-04-14 03:34 | 43.34428 | -73.63597 | 1064 ft | 91 kts | 249° |
| 2026-04-14 03:34 | 43.33897 | -73.63925 | 1280 ft | 97 kts | 163° |
| 2026-04-14 03:35 | 43.33202 | -73.63668 | 1440 ft | 103 kts | 154° |
| 2026-04-14 03:35 | 43.32914 | -73.62857 | 1733 ft | 102 kts | 97° |
| 2026-04-14 03:35 | 43.32826 | -73.61907 | 1973 ft | 101 kts | 96° |
| 2026-04-14 03:35 | 43.32776 | -73.60926 | 2171 ft | 103 kts | 92° |
| 2026-04-14 03:36 | 43.32796 | -73.59947 | 2400 ft | 102 kts | 81° |
| 2026-04-14 03:36 | 43.33051 | -73.59042 | 2616 ft | 102 kts | 66° |
| 2026-04-14 03:36 | 43.33330 | -73.58151 | 2853 ft | 101 kts | 67° |
| 2026-04-14 03:36 | 43.33608 | -73.57266 | 3120 ft | 101 kts | 66° |
| 2026-04-14 03:37 | 43.33883 | -73.56380 | 3332 ft | 101 kts | 66° |
| 2026-04-14 03:37 | 43.34158 | -73.55493 | 3568 ft | 101 kts | 66° |
| 2026-04-14 03:37 | 43.34434 | -73.54610 | 3786 ft | 100 kts | 67° |
| 2026-04-14 03:37 | 43.34707 | -73.53728 | 3997 ft | 100 kts | 67° |
| 2026-04-14 03:38 | 43.34982 | -73.52847 | 4232 ft | 100 kts | 66° |
| 2026-04-14 03:38 | 43.35256 | -73.51969 | 4468 ft | 100 kts | 66° |
| 2026-04-14 03:38 | 43.35529 | -73.51090 | 4667 ft | 100 kts | 66° |
| 2026-04-14 03:38 | 43.35803 | -73.50215 | 4864 ft | 100 kts | 67° |
| 2026-04-14 03:39 | 43.36074 | -73.49339 | 5068 ft | 100 kts | 67° |
| 2026-04-14 03:39 | 43.36347 | -73.48466 | 5272 ft | 99 kts | 66° |
| 2026-04-14 03:39 | 43.36619 | -73.47592 | 5465 ft | 99 kts | 66° |
| 2026-04-14 03:39 | 43.36908 | -73.46662 | 5508 ft | 113 kts | 66° |
| 2026-04-14 03:40 | 43.37230 | -73.45626 | 5508 ft | 123 kts | 67° |
| 2026-04-14 03:40 | 43.37576 | -73.44527 | 5509 ft | 127 kts | 66° |
| 2026-04-14 03:40 | 43.37924 | -73.43403 | 5509 ft | 128 kts | 68° |
| 2026-04-14 03:40 | 43.38263 | -73.42272 | 5505 ft | 127 kts | 67° |
| 2026-04-14 03:41 | 43.38611 | -73.41158 | 5506 ft | 127 kts | 66° |
| 2026-04-14 03:41 | 43.38960 | -73.40045 | 5507 ft | 127 kts | 67° |
| 2026-04-14 03:41 | 43.39308 | -73.38925 | 5505 ft | 127 kts | 66° |
| 2026-04-14 03:41 | 43.39657 | -73.37807 | 5506 ft | 128 kts | 67° |
| 2026-04-14 03:42 | 43.40009 | -73.36686 | 5508 ft | 128 kts | 66° |
| 2026-04-14 03:42 | 43.40359 | -73.35564 | 5505 ft | 127 kts | 66° |
| 2026-04-14 03:42 | 43.40709 | -73.34444 | 5507 ft | 128 kts | 66° |
| 2026-04-14 03:42 | 43.41060 | -73.33321 | 5506 ft | 128 kts | 67° |
| 2026-04-14 03:43 | 43.41411 | -73.32197 | 5507 ft | 128 kts | 66° |
| 2026-04-14 03:43 | 43.41763 | -73.31070 | 5507 ft | 128 kts | 66° |
| 2026-04-14 03:43 | 43.42114 | -73.29947 | 5506 ft | 127 kts | 66° |
| 2026-04-14 03:43 | 43.42460 | -73.28843 | 5507 ft | 128 kts | 66° |
| 2026-04-14 03:44 | 43.42954 | -73.27832 | 5513 ft | 127 kts | 67° |
| 2026-04-14 03:44 | 43.43197 | -73.26673 | 5540 ft | 127 kts | 70° |
| 2026-04-14 03:44 | 43.43569 | -73.25560 | 5497 ft | 130 kts | 50° |
| 2026-04-14 03:44 | 43.44320 | -73.24916 | 5498 ft | 127 kts | 31° |
| 2026-04-14 03:45 | 43.44931 | -73.24063 | 5498 ft | 127 kts | 62° |
| 2026-04-14 03:45 | 43.45301 | -73.22964 | 5505 ft | 127 kts | 65° |
| 2026-04-14 03:45 | 43.45669 | -73.21855 | 5503 ft | 127 kts | 66° |
| 2026-04-14 03:45 | 43.46022 | -73.20740 | 5503 ft | 127 kts | 66° |
| 2026-04-14 03:46 | 43.46367 | -73.19622 | 5503 ft | 127 kts | 67° |
| 2026-04-14 03:46 | 43.46709 | -73.18505 | 5502 ft | 127 kts | 67° |
| 2026-04-14 03:46 | 43.47051 | -73.17386 | 5503 ft | 127 kts | 67° |
| 2026-04-14 03:46 | 43.47393 | -73.16267 | 5502 ft | 127 kts | 67° |
| 2026-04-14 03:47 | 43.47734 | -73.15151 | 5501 ft | 126 kts | 67° |
| 2026-04-14 03:47 | 43.48074 | -73.14038 | 5502 ft | 126 kts | 67° |
| 2026-04-14 03:47 | 43.48394 | -73.12899 | 5375 ft | 128 kts | 70° |
| 2026-04-14 03:47 | 43.48702 | -73.11778 | 5251 ft | 122 kts | 69° |
| 2026-04-14 03:48 | 43.49002 | -73.10689 | 5080 ft | 120 kts | 68° |
| 2026-04-14 03:48 | 43.49304 | -73.09612 | 4827 ft | 122 kts | 69° |
| 2026-04-14 03:48 | 43.49606 | -73.08518 | 4562 ft | 122 kts | 69° |
| 2026-04-14 03:48 | 43.49920 | -73.07435 | 4300 ft | 122 kts | 68° |
| 2026-04-14 03:49 | 43.50231 | -73.06353 | 4049 ft | 121 kts | 68° |
| 2026-04-14 03:49 | 43.50559 | -73.05294 | 3802 ft | 120 kts | 66° |
| 2026-04-14 03:49 | 43.50895 | -73.04218 | 3510 ft | 120 kts | 66° |
| 2026-04-14 03:49 | 43.51220 | -73.03190 | 3275 ft | 114 kts | 65° |
| 2026-04-14 03:50 | 43.51534 | -73.02205 | 3052 ft | 111 kts | 65° |
| 2026-04-14 03:50 | 43.51832 | -73.01253 | 2899 ft | 104 kts | 67° |
| 2026-04-14 03:50 | 43.52106 | -73.00338 | 2734 ft | 103 kts | 66° |
| 2026-04-14 03:50 | 43.52403 | -72.99430 | 2519 ft | 105 kts | 64° |
| 2026-04-14 03:51 | 43.52693 | -72.98499 | 2306 ft | 105 kts | 69° |
| 2026-04-14 03:51 | 43.52925 | -72.97580 | 2161 ft | 100 kts | 73° |
| 2026-04-14 03:51 | 43.53069 | -72.96658 | 2023 ft | 97 kts | 82° |
| 2026-04-14 03:51 | 43.53141 | -72.95759 | 1905 ft | 93 kts | 86° |
| 2026-04-14 03:52 | 43.53177 | -72.94876 | 1789 ft | 92 kts | 86° |
| 2026-04-14 03:52 | 43.53211 | -72.93994 | 1730 ft | 95 kts | 88° |
| 2026-04-14 03:52 | 43.53243 | -72.93099 | 1744 ft | 90 kts | 88° |
| 2026-04-14 03:52 | 43.53211 | -72.92274 | 1856 ft | 83 kts | 96° |
| 2026-04-14 03:53 | 43.53169 | -72.91513 | 1956 ft | 77 kts | 92° |
| 2026-04-14 03:53 | 43.53125 | -72.90765 | 2037 ft | 80 kts | 114° |
| 2026-04-14 03:53 | 43.52688 | -72.90409 | 2032 ft | 80 kts | 190° |
| 2026-04-14 03:53 | 43.52293 | -72.90958 | 1863 ft | 92 kts | 262° |
| 2026-04-14 03:54 | 43.52449 | -72.91808 | 1788 ft | 92 kts | 296° |
| 2026-04-14 03:54 | 43.52834 | -72.92496 | 1653 ft | 92 kts | 331° |
| 2026-04-14 03:54 | 43.53448 | -72.92722 | 1555 ft | 92 kts | 348° |
| 2026-04-14 03:54 | 43.54072 | -72.92847 | 1508 ft | 89 kts | 353° |
| 2026-04-14 03:55 | 43.54676 | -72.92917 | 1484 ft | 86 kts | 354° |
| 2026-04-14 03:55 | 43.55178 | -72.93199 | 1460 ft | 73 kts | 298° |
| 2026-04-14 03:55 | 43.55323 | -72.93894 | 1362 ft | 88 kts | 282° |
| 2026-04-14 03:55 | 43.55252 | -72.94713 | 1255 ft | 93 kts | 226° |
| 2026-04-14 03:56 | 43.54635 | -72.94982 | 1028 ft | 92 kts | 187° |
| 2026-04-14 03:56 | 43.54067 | -72.95012 | 877 ft | 74 kts | 178° |
| 2026-04-14 03:56 | 43.53612 | -72.94992 | 790 ft | 52 kts | 179° |
| 2026-04-14 03:56 | 43.53372 | -72.94985 | 791 ft | 28 kts | 179° |
| 2026-04-14 03:57 | 43.53178 | -72.94976 | 790 ft | 29 kts | 179° |
| 2026-04-14 03:57 | 43.52989 | -72.94969 | 792 ft | 25 kts | 177° |
| 2026-04-14 03:57 | 43.52830 | -72.94960 | 792 ft | 21 kts | 176° |
| 2026-04-14 03:57 | 43.52752 | -72.94873 | 793 ft | 13 kts | 123° |
| 2026-04-14 03:58 | 43.52724 | -72.94806 | 793 ft | 0 kts | 117° |
| 2026-04-14 03:59 | 43.52721 | -72.94800 | 793 ft | 5 kts | 115° |
| 2026-04-14 03:59 | 43.52739 | -72.94715 | 793 ft | 11 kts | 56° |
| 2026-04-14 04:00 | 43.52721 | -72.94677 | 794 ft | 3 kts | 259° |
| 2026-04-14 04:00 | 43.52715 | -72.94686 | 794 ft | 0 kts | 198° |